Wetterdaten: Woche 20.04.26 - 26.04.26 (KW17)
Datum Zeit Temp. Aussen Temp. o. S. Temp +5cm Feuchte Auss Luftdruck Regen Sonnenschein Solar Windböen Empfang
20.04.2026 00:00 8,2 °C 6,4 °C 3,5 °C 84 % 1022,6 hPa 0,0 l/m² 0,00 h 0 W/m² 0,4 km/h (0 Bft) 97,56 %
20.04.2026 01:00 7,1 °C 5,7 °C 2,7 °C 87 % 1022,7 hPa 0,0 l/m² 0,00 h 0 W/m² 3,6 km/h (1 Bft) 97,26 %
20.04.2026 02:00 6,5 °C 5,5 °C 2,4 °C 89 % 1022,4 hPa 0,0 l/m² 0,00 h 0 W/m² 3,5 km/h (1 Bft) 97,31 %
20.04.2026 03:00 6,0 °C 4,7 °C 1,8 °C 90 % 1022,3 hPa 0,0 l/m² 0,00 h 0 W/m² 1,8 km/h (1 Bft) 98,17 %
20.04.2026 04:00 5,2 °C 3,9 °C 1,1 °C 91 % 1022,2 hPa 0,0 l/m² 0,00 h 0 W/m² 0,9 km/h (0 Bft) 98,20 %
20.04.2026 05:00 4,7 °C 3,6 °C 0,8 °C 92 % 1022,3 hPa 0,0 l/m² 0,00 h 0 W/m² 1,5 km/h (1 Bft) 94,28 %
20.04.2026 06:00 4,4 °C 3,5 °C 0,6 °C 93 % 1022,1 hPa 0,0 l/m² 0,00 h 9 W/m² 0,9 km/h (0 Bft) 97,34 %
20.04.2026 07:00 4,6 °C 4,5 °C 1,2 °C 94 % 1022,2 hPa 0,0 l/m² 0,00 h 49 W/m² 0,9 km/h (0 Bft) 98,51 %
20.04.2026 08:00 6,4 °C 7,7 °C 3,5 °C 95 % 1022,3 hPa 0,0 l/m² 0,30 h 169 W/m² 8,3 km/h (2 Bft) 97,48 %
20.04.2026 09:00 8,3 °C 14,7 °C 5,8 °C 90 % 1022,3 hPa 0,0 l/m² 0,87 h 352 W/m² 9,4 km/h (2 Bft) 98,23 %
20.04.2026 10:00 10,2 °C 14,1 °C 7,9 °C 78 % 1022,4 hPa 0,0 l/m² 0,80 h 496 W/m² 11,9 km/h (2 Bft) 98,09 %
20.04.2026 11:00 11,4 °C 14,5 °C 9,1 °C 69 % 1022,3 hPa 0,0 l/m² 0,77 h 540 W/m² 16,0 km/h (3 Bft) 96,47 %
20.04.2026 12:00 13,3 °C 21,4 °C 15,4 °C 60 % 1021,9 hPa 0,0 l/m² 0,80 h 705 W/m² 16,5 km/h (3 Bft) 98,13 %
20.04.2026 13:00 14,4 °C 20,6 °C 14,3 °C 54 % 1021,5 hPa 0,0 l/m² 0,67 h 631 W/m² 15,0 km/h (3 Bft) 95,21 %
20.04.2026 14:00 14,4 °C 17,8 °C 10,6 °C 51 % 1021,2 hPa 0,0 l/m² 0,30 h 413 W/m² 14,7 km/h (3 Bft) 96,75 %
20.04.2026 15:00 14,8 °C 21,2 °C 11,5 °C 52 % 1020,9 hPa 0,0 l/m² 0,80 h 676 W/m² 15,6 km/h (3 Bft) 99,12 %
20.04.2026 16:00 14,4 °C 14,9 °C 10,5 °C 50 % 1020,5 hPa 0,0 l/m² 0,00 h 193 W/m² 14,4 km/h (3 Bft) 98,02 %
20.04.2026 17:00 14,5 °C 17,4 °C 11,0 °C 51 % 1020,4 hPa 0,0 l/m² 0,73 h 382 W/m² 13,6 km/h (3 Bft) 96,04 %
20.04.2026 18:00 14,0 °C 14,1 °C 10,1 °C 51 % 1020,3 hPa 0,0 l/m² 0,20 h 147 W/m² 10,3 km/h (2 Bft) 98,29 %
20.04.2026 19:00 12,6 °C 12,0 °C 8,4 °C 58 % 1020,4 hPa 0,0 l/m² 0,00 h 40 W/m² 10,5 km/h (2 Bft) 95,46 %
20.04.2026 20:00 11,0 °C 10,0 °C 6,8 °C 72 % 1020,9 hPa 0,0 l/m² 0,00 h 9 W/m² 11,6 km/h (2 Bft) 96,64 %
20.04.2026 21:00 10,0 °C 9,1 °C 5,9 °C 75 % 1021,4 hPa 0,0 l/m² 0,00 h 0 W/m² 8,9 km/h (2 Bft) 99,09 %
20.04.2026 22:00 9,3 °C 8,3 °C 5,4 °C 78 % 1021,7 hPa 0,0 l/m² 0,00 h 0 W/m² 6,5 km/h (2 Bft) 96,60 %
20.04.2026 23:00 8,8 °C 7,9 °C 4,8 °C 81 % 1021,9 hPa 0,0 l/m² 0,00 h 0 W/m² 7,2 km/h (2 Bft) 96,63 %
21.04.2026 00:00 8,5 °C 7,6 °C 4,4 °C 83 % 1022,1 hPa 0,0 l/m² 0,00 h 0 W/m² 3,5 km/h (1 Bft) 93,90 %
21.04.2026 01:00 8,0 °C 7,1 °C 4,0 °C 85 % 1022,6 hPa 0,0 l/m² 0,00 h 0 W/m² 2,7 km/h (1 Bft) 95,21 %
21.04.2026 02:00 7,5 °C 6,7 °C 3,5 °C 87 % 1022,7 hPa 0,0 l/m² 0,00 h 0 W/m² 3,5 km/h (1 Bft) 95,98 %
21.04.2026 03:00 7,3 °C 6,7 °C 3,3 °C 88 % 1022,8 hPa 0,0 l/m² 0,00 h 0 W/m² 3,4 km/h (1 Bft) 97,02 %
21.04.2026 04:00 7,0 °C 5,9 °C 2,8 °C 89 % 1022,9 hPa 0,0 l/m² 0,00 h 0 W/m² 2,2 km/h (1 Bft) 99,64 %
21.04.2026 05:00 6,4 °C 5,4 °C 2,2 °C 90 % 1022,9 hPa 0,0 l/m² 0,00 h 0 W/m² 2,0 km/h (1 Bft) 95,63 %
21.04.2026 06:00 6,2 °C 5,3 °C 2,2 °C 92 % 1023,1 hPa 0,0 l/m² 0,00 h 8 W/m² 3,7 km/h (1 Bft) 96,47 %
21.04.2026 07:00 6,4 °C 6,4 °C 2,9 °C 94 % 1023,5 hPa 0,0 l/m² 0,00 h 42 W/m² 3,0 km/h (1 Bft) 96,27 %
21.04.2026 08:00 7,5 °C 8,3 °C 4,4 °C 93 % 1023,8 hPa 0,0 l/m² 0,03 h 123 W/m² 7,7 km/h (2 Bft) 97,02 %
21.04.2026 09:00 8,7 °C 10,0 °C 5,5 °C 89 % 1024,2 hPa 0,0 l/m² 0,20 h 186 W/m² 12,5 km/h (3 Bft) 97,86 %
21.04.2026 10:00 9,5 °C 11,4 °C 6,7 °C 85 % 1024,5 hPa 0,0 l/m² 0,17 h 238 W/m² 11,8 km/h (2 Bft) 98,51 %
21.04.2026 11:00 12,0 °C 16,7 °C 9,6 °C 76 % 1024,5 hPa 0,0 l/m² 0,97 h 645 W/m² 14,1 km/h (3 Bft) 93,53 %
21.04.2026 12:00 14,2 °C 23,3 °C 15,4 °C 64 % 1024,3 hPa 0,0 l/m² 1,00 h 767 W/m² 17,7 km/h (3 Bft) 96,83 %
21.04.2026 13:00 15,8 °C 25,2 °C 17,1 °C 58 % 1024,1 hPa 0,0 l/m² 1,00 h 809 W/m² 15,9 km/h (3 Bft) 97,18 %
21.04.2026 14:00 17,0 °C 25,9 °C 13,0 °C 55 % 1023,9 hPa 0,0 l/m² 1,00 h 791 W/m² 15,9 km/h (3 Bft) 97,45 %
21.04.2026 15:00 17,2 °C 24,1 °C 14,0 °C 53 % 1023,7 hPa 0,0 l/m² 0,90 h 679 W/m² 18,6 km/h (3 Bft) 99,28 %
21.04.2026 16:00 17,2 °C 22,7 °C 14,3 °C 52 % 1023,4 hPa 0,0 l/m² 0,93 h 589 W/m² 17,8 km/h (3 Bft) 96,92 %
21.04.2026 17:00 16,8 °C 21,4 °C 13,9 °C 51 % 1023,3 hPa 0,0 l/m² 0,87 h 398 W/m² 15,1 km/h (3 Bft) 95,92 %
21.04.2026 18:00 15,9 °C 18,4 °C 12,4 °C 52 % 1023,1 hPa 0,0 l/m² 0,83 h 252 W/m² 16,9 km/h (3 Bft) 99,36 %
21.04.2026 19:00 13,9 °C 13,4 °C 9,8 °C 56 % 1023,2 hPa 0,0 l/m² 0,00 h 37 W/m² 12,8 km/h (3 Bft) 96,48 %
21.04.2026 20:00 12,4 °C 11,4 °C 8,0 °C 58 % 1023,8 hPa 0,0 l/m² 0,00 h 12 W/m² 7,9 km/h (2 Bft) 95,92 %
21.04.2026 21:00 11,2 °C 9,9 °C 6,7 °C 59 % 1024,6 hPa 0,0 l/m² 0,00 h 0 W/m² 5,3 km/h (1 Bft) 97,99 %
21.04.2026 22:00 10,1 °C 8,9 °C 5,8 °C 63 % 1025,0 hPa 0,0 l/m² 0,00 h 0 W/m² 4,8 km/h (1 Bft) 98,21 %
21.04.2026 23:00 9,2 °C 7,6 °C 4,7 °C 69 % 1025,2 hPa 0,0 l/m² 0,00 h 0 W/m² 2,8 km/h (1 Bft) 96,53 %
22.04.2026 00:00 8,0 °C 6,7 °C 3,7 °C 73 % 1025,4 hPa 0,0 l/m² 0,00 h 0 W/m² 2,5 km/h (1 Bft) 97,94 %
22.04.2026 01:00 7,2 °C 6,0 °C 2,9 °C 76 % 1025,7 hPa 0,0 l/m² 0,00 h 0 W/m² 1,9 km/h (1 Bft) 98,14 %
22.04.2026 02:00 6,5 °C 5,2 °C 2,3 °C 79 % 1025,7 hPa 0,0 l/m² 0,00 h 0 W/m² 1,5 km/h (1 Bft) 98,70 %
22.04.2026 03:00 5,8 °C 4,4 °C 1,7 °C 82 % 1025,7 hPa 0,0 l/m² 0,00 h 0 W/m² 0,0 km/h (0 Bft) 94,83 %
22.04.2026 04:00 5,1 °C 3,9 °C 1,1 °C 83 % 1025,9 hPa 0,0 l/m² 0,00 h 0 W/m² 0,6 km/h (0 Bft) 95,93 %
22.04.2026 05:00 4,7 °C 3,6 °C 0,7 °C 85 % 1026,1 hPa 0,0 l/m² 0,00 h 0 W/m² 0,1 km/h (0 Bft) 99,50 %
22.04.2026 06:00 4,3 °C 3,2 °C 0,5 °C 86 % 1026,4 hPa 0,0 l/m² 0,00 h 9 W/m² 0,7 km/h (0 Bft) 96,99 %
22.04.2026 07:00 4,6 °C 4,4 °C 1,1 °C 87 % 1026,9 hPa 0,0 l/m² 0,00 h 22 W/m² 1,8 km/h (1 Bft) 96,67 %
22.04.2026 08:00 6,3 °C 7,3 °C 3,0 °C 85 % 1027,3 hPa 0,0 l/m² 0,37 h 142 W/m² 4,8 km/h (1 Bft) 97,55 %
22.04.2026 09:00 11,3 °C 20,9 °C 8,2 °C 69 % 1027,3 hPa 0,0 l/m² 1,00 h 454 W/m² 9,1 km/h (2 Bft) 98,52 %
22.04.2026 10:00 13,9 °C 18,9 °C 10,2 °C 57 % 1027,4 hPa 0,0 l/m² 1,00 h 611 W/m² 14,7 km/h (3 Bft) 95,29 %
22.04.2026 11:00 14,9 °C 19,0 °C 11,3 °C 53 % 1027,3 hPa 0,0 l/m² 1,00 h 734 W/m² 14,4 km/h (3 Bft) 99,08 %
22.04.2026 12:00 16,8 °C 26,9 °C 17,9 °C 49 % 1027,2 hPa 0,0 l/m² 1,00 h 811 W/m² 13,6 km/h (3 Bft) 97,10 %
22.04.2026 13:00 17,7 °C 27,8 °C 19,3 °C 44 % 1027,2 hPa 0,0 l/m² 1,00 h 842 W/m² 13,5 km/h (3 Bft) 98,79 %
22.04.2026 14:00 18,8 °C 28,2 °C 14,6 °C 40 % 1027,1 hPa 0,0 l/m² 1,00 h 822 W/m² 14,7 km/h (3 Bft) 98,72 %
22.04.2026 15:00 19,5 °C 27,8 °C 16,0 °C 39 % 1026,8 hPa 0,0 l/m² 1,00 h 752 W/m² 13,4 km/h (3 Bft) 95,71 %
22.04.2026 16:00 19,9 °C 26,4 °C 16,9 °C 40 % 1026,3 hPa 0,0 l/m² 1,00 h 636 W/m² 13,5 km/h (3 Bft) 97,97 %
22.04.2026 17:00 19,7 °C 25,6 °C 16,7 °C 40 % 1026,2 hPa 0,0 l/m² 1,00 h 484 W/m² 13,6 km/h (3 Bft) 98,78 %
22.04.2026 18:00 18,9 °C 22,3 °C 15,3 °C 41 % 1026,1 hPa 0,0 l/m² 0,90 h 287 W/m² 13,2 km/h (3 Bft) 96,15 %
22.04.2026 19:00 16,5 °C 15,7 °C 12,0 °C 46 % 1026,0 hPa 0,0 l/m² 0,00 h 29 W/m² 8,8 km/h (2 Bft) 98,27 %
22.04.2026 20:00 14,6 °C 13,3 °C 9,9 °C 52 % 1026,2 hPa 0,0 l/m² 0,00 h 11 W/m² 5,7 km/h (1 Bft) 96,89 %
22.04.2026 21:00 13,1 °C 11,7 °C 8,3 °C 55 % 1026,8 hPa 0,0 l/m² 0,00 h 0 W/m² 4,6 km/h (1 Bft) 97,23 %
22.04.2026 22:00 11,9 °C 10,3 °C 7,1 °C 59 % 1027,1 hPa 0,0 l/m² 0,00 h 0 W/m² 1,4 km/h (1 Bft) 98,29 %
22.04.2026 23:00 10,3 °C 8,0 °C 5,1 °C 67 % 1027,6 hPa 0,0 l/m² 0,00 h 0 W/m² 0,0 km/h (0 Bft) 96,41 %
23.04.2026 00:00 8,7 °C 6,6 °C 3,7 °C 73 % 1027,9 hPa 0,0 l/m² 0,00 h 0 W/m² 0,0 km/h (0 Bft) 95,99 %
23.04.2026 01:00 7,4 °C 5,6 °C 2,7 °C 77 % 1028,2 hPa 0,0 l/m² 0,00 h 0 W/m² 0,0 km/h (0 Bft) 96,63 %
23.04.2026 02:00 6,4 °C 4,7 °C 2,0 °C 80 % 1028,4 hPa 0,0 l/m² 0,00 h 0 W/m² 0,0 km/h (0 Bft) 97,97 %
23.04.2026 03:00 5,7 °C 4,5 °C 1,7 °C 82 % 1028,6 hPa 0,0 l/m² 0,00 h 0 W/m² 0,0 km/h (0 Bft) 97,30 %
23.04.2026 04:00 5,3 °C 4,7 °C 1,7 °C 83 % 1028,8 hPa 0,0 l/m² 0,00 h 0 W/m² 0,3 km/h (0 Bft) 97,87 %
23.04.2026 05:00 5,1 °C 3,9 °C 1,2 °C 83 % 1028,7 hPa 0,0 l/m² 0,00 h 0 W/m² 0,0 km/h (0 Bft) 97,43 %
23.04.2026 06:00 4,7 °C 3,7 °C 0,9 °C 85 % 1029,1 hPa 0,0 l/m² 0,00 h 9 W/m² 0,5 km/h (0 Bft) 95,31 %
23.04.2026 07:00 4,8 °C 4,3 °C 1,3 °C 87 % 1029,4 hPa 0,0 l/m² 0,00 h 21 W/m² 1,0 km/h (0 Bft) 98,15 %
23.04.2026 08:00 6,2 °C 7,4 °C 3,2 °C 88 % 1029,7 hPa 0,0 l/m² 0,37 h 147 W/m² 4,1 km/h (1 Bft) 97,75 %
23.04.2026 09:00 11,0 °C 20,1 °C 8,7 °C 71 % 1029,9 hPa 0,0 l/m² 1,00 h 464 W/m² 6,2 km/h (2 Bft) 97,55 %
23.04.2026 10:00 13,8 °C 18,7 °C 10,4 °C 61 % 1030,2 hPa 0,0 l/m² 1,00 h 619 W/m² 7,8 km/h (2 Bft) 97,52 %
23.04.2026 11:00 15,4 °C 19,6 °C 11,8 °C 56 % 1030,0 hPa 0,0 l/m² 1,00 h 743 W/m² 13,1 km/h (3 Bft) 96,30 %
23.04.2026 12:00 17,3 °C 26,9 °C 19,7 °C 45 % 1029,7 hPa 0,0 l/m² 1,00 h 829 W/m² 14,9 km/h (3 Bft) 95,89 %
23.04.2026 13:00 18,7 °C 28,4 °C 21,9 °C 38 % 1029,3 hPa 0,0 l/m² 1,00 h 861 W/m² 14,7 km/h (3 Bft) 98,73 %
23.04.2026 14:00 19,9 °C 28,9 °C 15,7 °C 37 % 1028,9 hPa 0,0 l/m² 1,00 h 840 W/m² 16,5 km/h (3 Bft) 96,60 %
23.04.2026 15:00 20,5 °C 28,0 °C 16,7 °C 35 % 1028,2 hPa 0,0 l/m² 1,00 h 770 W/m² 17,1 km/h (3 Bft) 99,06 %
23.04.2026 16:00 20,8 °C 26,2 °C 17,2 °C 36 % 1027,6 hPa 0,0 l/m² 1,00 h 648 W/m² 18,7 km/h (3 Bft) 94,88 %
23.04.2026 17:00 20,6 °C 25,6 °C 17,2 °C 40 % 1027,1 hPa 0,0 l/m² 1,00 h 493 W/m² 17,9 km/h (3 Bft) 99,29 %
23.04.2026 18:00 19,7 °C 23,1 °C 16,1 °C 42 % 1026,6 hPa 0,0 l/m² 0,93 h 301 W/m² 17,7 km/h (3 Bft) 98,58 %
23.04.2026 19:00 17,7 °C 16,9 °C 13,2 °C 47 % 1026,2 hPa 0,0 l/m² 0,00 h 30 W/m² 12,7 km/h (3 Bft) 95,94 %
23.04.2026 20:00 16,0 °C 14,7 °C 11,3 °C 53 % 1026,3 hPa 0,0 l/m² 0,00 h 12 W/m² 9,2 km/h (2 Bft) 98,49 %
23.04.2026 21:00 14,4 °C 13,0 °C 9,7 °C 62 % 1026,5 hPa 0,0 l/m² 0,00 h 0 W/m² 10,2 km/h (2 Bft) 97,72 %
23.04.2026 22:00 13,0 °C 11,9 °C 8,6 °C 68 % 1026,7 hPa 0,0 l/m² 0,00 h 0 W/m² 9,9 km/h (2 Bft) 96,34 %
23.04.2026 23:00 11,7 °C 10,2 °C 7,1 °C 71 % 1026,8 hPa 0,0 l/m² 0,00 h 0 W/m² 5,6 km/h (1 Bft) 98,05 %
24.04.2026 00:00 10,1 °C 8,7 °C 5,8 °C 75 % 1026,7 hPa 0,0 l/m² 0,00 h 0 W/m² 6,9 km/h (2 Bft) 96,99 %
24.04.2026 01:00 9,1 °C 7,8 °C 4,8 °C 82 % 1026,4 hPa 0,0 l/m² 0,00 h 0 W/m² 6,9 km/h (2 Bft) 95,04 %
24.04.2026 02:00 8,0 °C 6,5 °C 3,6 °C 85 % 1026,0 hPa 0,0 l/m² 0,00 h 0 W/m² 3,6 km/h (1 Bft) 97,17 %
24.04.2026 03:00 6,8 °C 5,4 °C 2,5 °C 88 % 1025,8 hPa 0,0 l/m² 0,00 h 0 W/m² 2,7 km/h (1 Bft) 97,09 %
24.04.2026 04:00 5,7 °C 4,2 °C 1,7 °C 90 % 1025,5 hPa 0,0 l/m² 0,00 h 0 W/m² 0,4 km/h (0 Bft) 96,67 %
24.04.2026 05:00 5,3 °C 4,8 °C 1,7 °C 92 % 1025,4 hPa 0,0 l/m² 0,00 h 0 W/m² 8,8 km/h (2 Bft) 97,84 %
24.04.2026 06:00 4,9 °C 4,7 °C 1,7 °C 94 % 1025,4 hPa 0,0 l/m² 0,00 h 8 W/m² 11,4 km/h (2 Bft) 96,17 %
24.04.2026 07:00 5,2 °C 5,1 °C 2,1 °C 94 % 1025,6 hPa 0,0 l/m² 0,00 h 28 W/m² 9,9 km/h (2 Bft) 97,32 %
24.04.2026 08:00 5,6 °C 6,1 °C 2,8 °C 92 % 1025,5 hPa 0,0 l/m² 0,00 h 90 W/m² 7,6 km/h (2 Bft) 98,52 %
24.04.2026 09:00 6,4 °C 7,4 °C 3,6 °C 89 % 1025,5 hPa 0,0 l/m² 0,07 h 169 W/m² 9,9 km/h (2 Bft) 96,26 %
24.04.2026 10:00 8,7 °C 12,3 °C 6,5 °C 82 % 1025,6 hPa 0,0 l/m² 0,83 h 487 W/m² 11,2 km/h (2 Bft) 98,67 %
24.04.2026 11:00 10,9 °C 15,4 °C 8,0 °C 75 % 1025,3 hPa 0,0 l/m² 1,00 h 715 W/m² 13,2 km/h (3 Bft) 97,61 %
24.04.2026 12:00 13,6 °C 22,9 °C 16,0 °C 68 % 1024,8 hPa 0,0 l/m² 1,00 h 803 W/m² 11,9 km/h (2 Bft) 97,49 %
24.04.2026 13:00 15,7 °C 25,1 °C 19,1 °C 62 % 1024,4 hPa 0,0 l/m² 1,00 h 839 W/m² 15,1 km/h (3 Bft) 98,54 %
24.04.2026 14:00 18,0 °C 27,0 °C 14,3 °C 56 % 1023,8 hPa 0,0 l/m² 1,00 h 818 W/m² 15,7 km/h (3 Bft) 95,81 %
24.04.2026 15:00 19,4 °C 26,4 °C 15,8 °C 51 % 1023,2 hPa 0,0 l/m² 1,00 h 749 W/m² 15,7 km/h (3 Bft) 97,76 %
24.04.2026 16:00 20,2 °C 25,7 °C 16,8 °C 46 % 1022,6 hPa 0,0 l/m² 1,00 h 642 W/m² 16,2 km/h (3 Bft) 98,72 %
24.04.2026 17:00 20,7 °C 26,0 °C 17,3 °C 44 % 1022,0 hPa 0,0 l/m² 1,00 h 492 W/m² 15,2 km/h (3 Bft) 96,66 %
24.04.2026 18:00 20,2 °C 23,3 °C 16,2 °C 45 % 1021,5 hPa 0,0 l/m² 0,93 h 300 W/m² 14,5 km/h (3 Bft) 96,90 %
24.04.2026 19:00 18,1 °C 17,2 °C 13,3 °C 49 % 1021,2 hPa 0,0 l/m² 0,00 h 38 W/m² 8,9 km/h (2 Bft) 98,17 %
24.04.2026 20:00 16,2 °C 14,9 °C 11,2 °C 55 % 1021,3 hPa 0,0 l/m² 0,00 h 15 W/m² 7,6 km/h (2 Bft) 96,54 %
24.04.2026 21:00 14,4 °C 12,4 °C 9,0 °C 60 % 1021,4 hPa 0,0 l/m² 0,00 h 0 W/m² 3,4 km/h (1 Bft) 98,44 %
24.04.2026 22:00 12,7 °C 10,9 °C 7,6 °C 67 % 1021,6 hPa 0,0 l/m² 0,00 h 0 W/m² 3,0 km/h (1 Bft) 97,03 %
24.04.2026 23:00 11,2 °C 9,7 °C 6,5 °C 76 % 1021,7 hPa 0,0 l/m² 0,00 h 0 W/m² 5,0 km/h (1 Bft) 96,65 %
25.04.2026 00:00 10,0 °C 8,7 °C 5,7 °C 83 % 1021,8 hPa 0,0 l/m² 0,00 h 0 W/m² 4,3 km/h (1 Bft) 97,45 %
25.04.2026 01:00 9,0 °C 7,4 °C 4,5 °C 86 % 1021,6 hPa 0,0 l/m² 0,00 h 0 W/m² 0,9 km/h (0 Bft) 98,70 %
25.04.2026 02:00 8,0 °C 6,6 °C 3,7 °C 88 % 1021,3 hPa 0,0 l/m² 0,00 h 0 W/m² 1,4 km/h (1 Bft) 94,90 %
25.04.2026 03:00 6,7 °C 5,3 °C 2,3 °C 90 % 1021,0 hPa 0,0 l/m² 0,00 h 0 W/m² 1,9 km/h (1 Bft) 97,32 %
25.04.2026 04:00 6,0 °C 4,8 °C 2,0 °C 92 % 1020,9 hPa 0,0 l/m² 0,00 h 0 W/m² 2,7 km/h (1 Bft) 96,15 %
25.04.2026 05:00 5,4 °C 4,4 °C 1,6 °C 93 % 1020,7 hPa 0,0 l/m² 0,00 h 0 W/m² 5,6 km/h (1 Bft) 98,30 %
25.04.2026 06:00 5,3 °C 4,8 °C 1,8 °C 94 % 1020,7 hPa 0,0 l/m² 0,00 h 7 W/m² 5,8 km/h (2 Bft) 96,74 %
25.04.2026 07:00 5,3 °C 5,0 °C 1,9 °C 95 % 1021,1 hPa 0,0 l/m² 0,00 h 26 W/m² 5,9 km/h (2 Bft) 96,45 %
25.04.2026 08:00 5,3 °C 5,4 °C 2,2 °C 96 % 1021,4 hPa 0,0 l/m² 0,00 h 62 W/m² 6,5 km/h (2 Bft) 96,24 %
25.04.2026 09:00 5,5 °C 5,8 °C 2,6 °C 97 % 1021,5 hPa 0,0 l/m² 0,00 h 109 W/m² 6,6 km/h (2 Bft) 98,73 %
25.04.2026 10:00 5,8 °C 7,7 °C 3,9 °C 95 % 1021,8 hPa 0,0 l/m² 0,30 h 265 W/m² 6,9 km/h (2 Bft) 96,36 %
25.04.2026 11:00 8,4 °C 12,8 °C 6,9 °C 86 % 1021,9 hPa 0,0 l/m² 0,93 h 692 W/m² 9,8 km/h (2 Bft) 97,02 %
25.04.2026 12:00 11,6 °C 21,6 °C 15,3 °C 74 % 1021,6 hPa 0,0 l/m² 1,00 h 826 W/m² 8,6 km/h (2 Bft) 97,62 %
25.04.2026 13:00 14,5 °C 23,8 °C 19,6 °C 65 % 1021,3 hPa 0,0 l/m² 1,00 h 858 W/m² 10,1 km/h (2 Bft) 98,08 %
25.04.2026 14:00 16,7 °C 25,7 °C 13,2 °C 57 % 1020,8 hPa 0,0 l/m² 1,00 h 837 W/m² 11,1 km/h (2 Bft) 97,86 %
25.04.2026 15:00 18,5 °C 25,1 °C 14,6 °C 49 % 1020,3 hPa 0,0 l/m² 1,00 h 764 W/m² 11,2 km/h (2 Bft) 95,26 %
25.04.2026 16:00 19,3 °C 24,5 °C 15,7 °C 45 % 1019,9 hPa 0,0 l/m² 1,00 h 647 W/m² 12,5 km/h (3 Bft) 98,56 %
25.04.2026 17:00 19,7 °C 24,4 °C 16,1 °C 41 % 1019,6 hPa 0,0 l/m² 1,00 h 497 W/m² 12,0 km/h (2 Bft) 97,43 %
25.04.2026 18:00 19,6 °C 22,6 °C 15,5 °C 38 % 1019,5 hPa 0,0 l/m² 0,97 h 317 W/m² 14,6 km/h (3 Bft) 96,80 %
25.04.2026 19:00 18,0 °C 17,1 °C 13,2 °C 43 % 1019,8 hPa 0,0 l/m² 0,00 h 34 W/m² 12,9 km/h (3 Bft) 97,94 %
25.04.2026 20:00 16,5 °C 14,5 °C 11,0 °C 50 % 1020,1 hPa 0,0 l/m² 0,00 h 13 W/m² 5,1 km/h (1 Bft) 96,82 %
25.04.2026 21:00 14,4 °C 11,7 °C 8,3 °C 59 % 1020,6 hPa 0,0 l/m² 0,00 h 0 W/m² 0,9 km/h (0 Bft) 96,05 %
25.04.2026 22:00 12,6 °C 11,1 °C 7,7 °C 65 % 1021,1 hPa 0,0 l/m² 0,00 h 0 W/m² 2,3 km/h (1 Bft) 97,67 %
25.04.2026 23:00 11,4 °C 9,3 °C 6,3 °C 70 % 1021,6 hPa 0,0 l/m² 0,00 h 0 W/m² 0,2 km/h (0 Bft) 98,45 %
26.04.2026 00:00 9,9 °C 8,1 °C 5,1 °C 73 % 1022,1 hPa 0,0 l/m² 0,00 h 0 W/m² 0,2 km/h (0 Bft) 94,73 %
26.04.2026 01:00 9,3 °C 8,1 °C 4,9 °C 79 % 1022,7 hPa 0,0 l/m² 0,00 h 0 W/m² 6,3 km/h (2 Bft) 98,22 %
26.04.2026 02:00 8,9 °C 7,6 °C 4,5 °C 84 % 1023,1 hPa 0,0 l/m² 0,00 h 0 W/m² 5,6 km/h (1 Bft) 97,70 %
26.04.2026 03:00 7,9 °C 6,7 °C 3,6 °C 87 % 1023,6 hPa 0,0 l/m² 0,00 h 0 W/m² 3,3 km/h (1 Bft) 97,81 %
26.04.2026 04:00 7,0 °C 5,7 °C 2,7 °C 88 % 1024,0 hPa 0,0 l/m² 0,00 h 0 W/m² 0,7 km/h (0 Bft) 96,07 %
26.04.2026 05:00 6,2 °C 4,5 °C 1,9 °C 88 % 1024,3 hPa 0,0 l/m² 0,00 h 0 W/m² 0,0 km/h (0 Bft) 98,49 %
26.04.2026 06:00 5,3 °C 3,9 °C 1,5 °C 89 % 1024,8 hPa 0,0 l/m² 0,00 h 11 W/m² 0,0 km/h (0 Bft) 97,49 %
26.04.2026 07:00 5,2 °C 5,0 °C 2,0 °C 91 % 1025,4 hPa 0,0 l/m² 0,00 h 28 W/m² 1,6 km/h (1 Bft) 95,77 %
26.04.2026 08:00 6,9 °C 8,4 °C 3,7 °C 92 % 1026,1 hPa 0,0 l/m² 0,33 h 154 W/m² 5,5 km/h (1 Bft) 95,17 %
26.04.2026 09:00 10,2 °C 16,5 °C 7,6 °C 81 % 1026,3 hPa 0,0 l/m² 0,70 h 360 W/m² 9,2 km/h (2 Bft) 98,76 %
26.04.2026 10:00 11,6 °C 15,7 °C 8,9 °C 73 % 1026,3 hPa 0,0 l/m² 0,97 h 566 W/m² 9,6 km/h (2 Bft) 97,50 %
26.04.2026 11:00 13,0 °C 17,9 °C 9,3 °C 66 % 1026,2 hPa 0,0 l/m² 1,00 h 731 W/m² 11,6 km/h (2 Bft) 98,73 %
26.04.2026 12:00 15,0 °C 25,2 °C 16,2 °C 56 % 1025,9 hPa 0,0 l/m² 1,00 h 831 W/m² 11,9 km/h (2 Bft) 96,88 %
26.04.2026 13:00 16,9 °C 26,3 °C 18,9 °C 49 % 1025,6 hPa 0,0 l/m² 1,00 h 872 W/m² 10,7 km/h (2 Bft) 97,62 %
26.04.2026 14:00 18,1 °C 27,5 °C 14,2 °C 47 % 1025,4 hPa 0,0 l/m² 1,00 h 841 W/m² 11,2 km/h (2 Bft) 97,37 %
26.04.2026 15:00 19,0 °C 27,0 °C 15,3 °C 44 % 1025,1 hPa 0,0 l/m² 1,00 h 758 W/m² 11,2 km/h (2 Bft) 97,27 %
26.04.2026 16:00 19,9 °C 25,7 °C 16,1 °C 42 % 1024,7 hPa 0,0 l/m² 1,00 h 637 W/m² 11,4 km/h (2 Bft) 97,38 %
26.04.2026 17:00 20,3 °C 25,2 °C 16,1 °C 41 % 1024,1 hPa 0,0 l/m² 1,00 h 470 W/m² 10,2 km/h (2 Bft) 99,21 %
26.04.2026 18:00 19,2 °C 22,2 °C 14,7 °C 43 % 1023,8 hPa 0,0 l/m² 0,93 h 287 W/m² 9,8 km/h (2 Bft) 94,25 %
26.04.2026 19:00 16,7 °C 16,2 °C 12,3 °C 47 % 1023,8 hPa 0,0 l/m² 0,00 h 56 W/m² 8,3 km/h (2 Bft) 99,63 %
26.04.2026 20:00 15,0 °C 13,5 °C 10,2 °C 50 % 1023,9 hPa 0,0 l/m² 0,00 h 12 W/m² 5,3 km/h (1 Bft) 97,14 %
26.04.2026 21:00 13,4 °C 11,2 °C 8,1 °C 57 % 1024,4 hPa 0,0 l/m² 0,00 h 0 W/m² 0,7 km/h (0 Bft) 96,99 %
26.04.2026 22:00 11,6 °C 9,4 °C 6,5 °C 64 % 1024,6 hPa 0,0 l/m² 0,00 h 0 W/m² 0,0 km/h (0 Bft) 97,21 %
26.04.2026 23:00 10,0 °C 7,8 °C 5,1 °C 70 % 1024,5 hPa 0,0 l/m² 0,00 h 0 W/m² 0,0 km/h (0 Bft) 97,03 %
Min-Datum _ 22.04.26 22.04.26 22.04.26 23.04.26 25.04.26 - - - 20.04.26 21.04.26
_ Min-Zeit 06:26 06:04 06:08 16:00 18:12 - - - 00:02 00:02
Minimum _ 4,2 °C 2,8 °C 0,0 °C 31 % 1019,4 hPa - - - 0,0 km/h (0 Bft) 14,29 %
Max-Datum _ 23.04.26 23.04.26 23.04.26 25.04.26 23.04.26 20.04.26 20.04.26 20.04.26 21.04.26 20.04.26
_ Max-Zeit 16:36 14:00 13:14 08:40 10:26 00:00 08:42 14:18 14:02 00:00
Maximum _ 21,0 °C 30,6 °C 24,4 °C 97 % 1030,3 hPa 0,0 l/m² 0,03 h 1010 W/m² 41,8 km/h
W (6 Bft)
100,00 %
Durchschnitt _ 11,6 °C 13,5 °C 8,2 °C 69 % 1024,3 hPa #0,0 l/m² #61:40 h 406 W/m² 7,9 km/h (2 Bft) 97,24 %
© 2026 W. Hausmann